Latest Weather Observations for Mildura

IDN60801

Issued at 3:05 pm EST Wednesday 17 September 2014 (issued every 30 minutes, with the page automatically refreshed every 10 minutes)

About weather observations | Map of weather stations | Latest weather observations for NSW | Other Formats
Station Details ID: 076031 Name: MILDURA AIRPORT Lat: -34.24 Lon: 142.09 Height: 50.0 m
Data from the previous 72 hours. | See also: Recent months at Mildura
Date/Time
EST
Temp
°C
App
Temp
°C
Dew
Point
Rel
Hum
%
Delta-T
°C
Wind Press
QNH
hPa
Press
MSL
hPa
Rain
since 9 am
mm
Dir
 
Spd
km/h
Gust
km/h
Spd
kts
Gust
kts
17/03:00pm 18.4 12.0 -1.5 26 8.4 SW 22 32 12 17 1018.6 1018.5 0.0
17/02:30pm 19.0 13.1 -1.9 24 8.8 W 19 26 10 14 1018.6 1018.5 0.0
17/02:00pm 17.4 11.9 0.8 32 7.3 SW 19 30 10 16 1018.9 1018.8 0.0
17/01:46pm 18.0 10.7 0.0 29 7.8 SSW 28 39 15 21 1018.8 1018.7 0.0
17/01:30pm 16.9 12.5 2.6 38 6.5 SW 15 20 8 11 1019.0 1019.0 0.0
17/01:00pm 17.8 11.6 2.1 35 7.1 SW 24 39 13 21 1019.1 1019.1 0.0
17/12:30pm 17.9 12.4 1.6 33 7.3 WSW 20 30 11 16 1019.2 1019.2 0.0
17/12:00pm 16.8 11.1 2.7 39 6.4 WSW 22 39 12 21 1019.4 1019.4 0.0
17/11:00am 14.7 9.8 4.0 48 4.9 SW 19 26 10 14 1019.9 1019.9 0.0
17/10:30am 14.7 10.4 5.4 53 4.4 WSW 17 24 9 13 1020.0 1020.0 0.0
17/10:00am 14.5 10.8 6.2 57 4.0 WSW 15 22 8 12 1020.2 1020.2 0.0
17/09:30am 13.3 8.8 6.1 61 3.4 WSW 19 28 10 15 1020.2 1020.2 0.0
17/09:00am 13.0 8.9 6.0 62 3.3 WSW 17 26 9 14 1020.2 1020.2 0.0
17/08:30am 11.8 8.3 7.0 72 2.3 WSW 15 24 8 13 1019.9 1019.9 0.0
17/08:00am 9.1 5.9 7.0 87 1.0 W 13 19 7 10 1019.6 1019.6 0.0
17/07:30am 7.6 4.3 6.5 93 0.5 W 13 17 7 9 1019.1 1019.1 0.0
17/07:00am 7.2 3.9 6.3 94 0.4 W 13 19 7 10 1018.8 1018.7 0.0
17/06:30am 6.3 3.6 5.6 95 0.3 W 9 11 5 6 1018.5 1018.4 0.0
17/05:30am 6.6 4.3 5.7 94 0.4 W 7 11 4 6 1017.9 1017.8 0.0
17/05:00am 6.8 4.1 5.7 93 0.5 WSW 9 15 5 8 1017.9 1017.8 0.0
17/04:30am 6.1 4.6 5.2 94 0.4 W 2 6 1 3 1017.6 1017.5 0.0
17/04:00am 5.9 3.4 4.7 92 0.5 W 7 9 4 5 1017.6 1017.5 0.0
17/03:30am 6.3 3.4 4.7 89 0.7 W 9 13 5 7 1017.6 1017.5 0.0
17/03:00am 6.5 3.6 4.4 86 0.9 W 9 13 5 7 1017.6 1017.5 0.0
17/02:30am 7.1 4.2 4.6 84 1.1 W 9 13 5 7 1017.5 1017.4 0.0
17/02:00am 7.7 4.8 4.7 81 1.3 W 9 13 5 7 1017.5 1017.4 0.0
17/01:30am 8.6 5.3 4.5 75 1.8 W 11 15 6 8 1017.7 1017.6 0.0
17/01:00am 8.5 5.1 4.1 74 1.9 WNW 11 13 6 7 1018.0 1017.9 0.0
17/12:30am 9.3 6.3 4.1 70 2.3 WNW 9 13 5 7 1017.9 1017.8 0.0
17/12:00am 10.4 7.8 4.4 66 2.7 W 7 11 4 6 1017.7 1017.6 0.0
 
Date/Time
EST
Temp
°C
App
Temp
°C
Dew
Point
Rel
Hum
%
Delta-T
°C
Wind Press
QNH
hPa
Press
MSL
hPa
Rain
since 9 am
mm
Dir
 
Spd
km/h
Gust
km/h
Spd
kts
Gust
kts
16/11:30pm 11.9 9.0 4.4 60 3.4 SW 9 17 5 9 1017.5 1017.4 0.0
16/11:00pm 12.6 9.2 4.0 56 3.9 SW 11 17 6 9 1017.3 1017.2 0.0
16/10:30pm 12.9 9.0 3.2 51 4.3 SW 13 19 7 10 1017.2 1017.1 0.0
16/10:00pm 13.5 9.0 2.3 46 4.9 SW 15 28 8 15 1017.0 1016.9 0.0
16/09:30pm 13.9 9.0 1.7 43 5.3 SW 17 26 9 14 1016.4 1016.4 0.0
16/09:00pm 13.4 10.3 3.4 50 4.5 SW 9 13 5 7 1016.2 1016.2 0.0
16/08:30pm 14.6 10.6 3.0 45 5.2 SW 13 17 7 9 1015.9 1015.9 0.0
16/08:00pm 15.8 12.2 3.0 42 5.8 SW 11 19 6 10 1015.7 1015.7 0.0
16/07:30pm 16.5 12.6 3.2 41 6.1 WSW 13 17 7 9 1015.3 1015.3 0.0
16/07:00pm 16.4 12.8 3.1 41 6.1 WSW 11 19 6 10 1014.8 1014.8 0.0
16/06:30pm 17.3 13.6 2.3 36 6.8 WSW 11 15 6 8 1014.5 1014.5 0.0
16/06:00pm 18.4 13.7 1.2 31 7.7 WSW 15 24 8 13 1014.1 1014.1 0.0
16/05:30pm 19.0 13.5 1.9 32 7.8 WSW 20 32 11 17 1013.9 1013.9 0.0
16/05:00pm 19.8 14.2 1.3 29 8.4 W 20 32 11 17 1014.0 1014.0 0.0
16/04:30pm 20.1 13.8 -0.7 24 9.1 WSW 22 32 12 17 1013.8 1013.8 0.0
16/04:00pm 20.1 14.6 0.8 27 8.7 SW 19 26 10 14 1013.9 1013.9 0.0
16/03:30pm 19.8 13.6 -0.6 25 8.9 SW 22 32 12 17 1013.9 1013.9 0.0
16/03:00pm 19.3 13.7 1.1 29 8.2 SW 20 28 11 15 1014.0 1014.0 0.0
16/02:30pm 19.7 14.2 1.8 30 8.2 SSW 20 33 11 18 1014.2 1014.2 0.0
16/02:00pm 18.6 13.2 2.2 33 7.5 SW 20 32 11 17 1014.4 1014.4 0.0
16/01:30pm 18.6 12.9 2.8 35 7.3 SW 22 33 12 18 1014.6 1014.6 0.0
16/01:00pm 18.2 12.2 3.1 36 7.0 SW 24 39 13 21 1014.8 1014.8 0.0
16/12:30pm 18.1 12.1 3.6 38 6.8 SW 24 37 13 20 1015.1 1015.1 0.0
16/12:00pm 18.6 12.7 4.1 38 6.9 WSW 24 50 13 27 1015.5 1015.5 0.0
16/11:55am 17.6 11.1 4.6 42 6.2 WSW 28 50 15 27 1015.5 1015.5 0.0
16/11:30am 18.3 12.4 3.9 38 6.8 SSW 24 39 13 21 1015.7 1015.7 0.0
16/11:00am 16.8 11.1 4.8 45 5.7 SW 24 35 13 19 1015.8 1015.8 0.0
16/10:30am 16.8 10.6 4.2 43 5.9 SSW 26 43 14 23 1015.8 1015.8 0.0
16/10:00am 15.6 9.8 4.5 47 5.2 SSW 24 35 13 19 1015.7 1015.7 0.0
16/09:30am 15.2 9.2 5.3 51 4.7 SW 26 41 14 22 1016.1 1016.1 0.0
16/09:00am 13.5 7.5 5.4 58 3.8 SW 26 43 14 23 1016.0 1016.0 0.0
16/08:43am 13.4 8.6 5.8 60 3.6 SW 20 32 11 17 1016.0 1016.0 0.0
16/08:30am 12.6 7.8 5.8 63 3.2 SW 20 39 11 21 1016.1 1016.1 0.0
16/08:00am 12.1 8.1 6.6 69 2.6 SW 17 30 9 16 1015.7 1015.7 0.0
16/07:30am 11.2 6.9 6.8 74 2.1 WSW 19 26 10 14 1015.4 1015.4 0.0
16/07:00am 10.9 6.5 6.7 75 2.0 WSW 19 28 10 15 1014.8 1014.8 0.0
16/06:30am 11.4 7.5 7.0 74 2.1 WSW 17 28 9 15 1014.5 1014.5 0.0
16/06:00am 12.4 7.9 6.8 68 2.7 SW 20 33 11 18 1014.0 1014.0 0.0
16/05:30am 12.9 8.2 6.2 64 3.2 SW 20 33 11 18 1013.5 1013.5 0.0
16/05:00am 12.9 7.8 5.9 62 3.3 SW 22 39 12 21 1013.2 1013.2 0.0
16/04:30am 12.8 7.3 6.0 63 3.2 SW 24 39 13 21 1012.8 1012.8 0.0
16/04:12am 12.9 6.7 6.2 64 3.2 SW 28 50 15 27 1012.5 1012.5 0.0
16/04:00am 12.9 7.6 6.9 67 2.9 WSW 24 43 13 23 1012.4 1012.4 0.0
16/03:30am 13.2 7.8 6.3 63 3.3 SW 24 41 13 22 1012.0 1012.0 0.0
16/03:01am 13.2 7.0 6.3 63 3.3 SW 28 48 15 26 1012.0 1012.0 0.0
16/03:00am 13.2 7.4 6.3 63 3.3 SW 26 48 14 26 1012.0 1012.0 0.0
16/02:30am 13.4 7.3 6.5 63 3.3 SW 28 44 15 24 1012.0 1012.0 0.0
16/02:13am 13.6 7.4 6.3 61 3.5 WSW 28 46 15 25 1011.9 1011.9 0.0
16/02:00am 13.6 8.2 6.5 62 3.4 WSW 24 39 13 21 1012.0 1012.0 0.0
16/01:30am 13.8 8.1 6.8 62 3.4 WSW 26 43 14 23 1011.9 1011.9 0.0
16/01:08am 14.0 8.0 7.0 62 3.4 WSW 28 46 15 25 1011.9 1011.9 0.0
16/01:00am 14.1 8.1 6.9 62 3.5 WSW 28 43 15 23 1011.9 1011.9 0.0
16/12:30am 14.1 9.8 7.9 66 3.1 WSW 20 33 11 18 1011.9 1011.9 0.0
16/12:00am 14.3 9.2 7.6 64 3.3 WSW 24 39 13 21 1011.5 1011.5 0.0
 
Date/Time
EST
Temp
°C
App
Temp
°C
Dew
Point
Rel
Hum
%
Delta-T
°C
Wind Press
QNH
hPa
Press
MSL
hPa
Rain
since 9 am
mm
Dir
 
Spd
km/h
Gust
km/h
Spd
kts
Gust
kts
15/11:30pm 14.5 10.6 8.8 68 2.9 WSW 19 35 10 19 1011.6 1011.6 0.0
15/11:00pm 14.7 12.0 9.0 68 2.9 WSW 13 20 7 11 1011.5 1011.5 0.0
15/10:30pm 14.5 10.5 9.0 69 2.8 WSW 20 33 11 18 1011.6 1011.6 0.0
15/10:00pm 14.2 10.2 8.9 70 2.7 W 20 30 11 16 1011.5 1011.5 0.0
15/09:30pm 14.3 10.4 8.8 69 2.8 W 19 32 10 17 1011.3 1011.3 0.0
15/09:00pm 14.9 10.8 8.6 66 3.2 W 20 35 11 19 1011.0 1011.0 0.0
15/08:30pm 15.3 10.8 7.0 57 4.1 WSW 20 32 11 17 1010.6 1010.6 0.0
15/08:00pm 15.9 11.1 5.5 50 5.0 W 20 30 11 16 1010.2 1010.2 0.0
15/07:30pm 16.6 12.1 5.9 49 5.2 W 19 28 10 15 1009.8 1009.8 0.0
15/07:00pm 17.3 12.9 6.6 49 5.3 W 19 28 10 15 1009.3 1009.3 0.0
15/06:30pm 18.2 13.6 6.3 45 5.9 W 20 39 11 21 1009.0 1009.0 0.0
15/06:00pm 18.7 14.7 5.1 40 6.6 W 15 24 8 13 1008.7 1008.7 0.0
15/05:30pm 19.3 14.8 6.0 41 6.6 W 19 32 10 17 1008.6 1008.6 0.0
15/05:00pm 19.8 15.0 5.7 39 7.0 WNW 20 30 11 16 1008.4 1008.4 0.0
15/04:30pm 20.2 15.9 5.2 37 7.4 WNW 17 24 9 13 1008.2 1008.2 0.0
15/04:00pm 20.1 15.7 4.7 36 7.5 W 17 28 9 15 1008.3 1008.3 0.0
15/03:30pm 20.1 14.5 5.6 38 7.2 W 24 35 13 19 1008.4 1008.4 0.0
15/03:00pm 20.1 14.2 5.9 39 7.1 W 26 43 14 23 1008.4 1008.4 0.0
15/02:30pm 20.9 15.3 5.4 36 7.7 WNW 24 37 13 20 1008.3 1008.3 0.0
15/02:00pm 21.1 15.7 4.6 34 8.1 W 22 35 12 19 1008.4 1008.4 0.0
15/01:30pm 22.0 16.5 4.2 31 8.7 NW 22 37 12 20 1008.7 1008.7 0.0
15/01:00pm 21.7 16.6 4.0 31 8.6 WNW 20 33 11 18 1009.2 1009.2 0.0
15/12:30pm 20.8 14.9 4.0 33 8.1 NW 24 37 13 20 1009.6 1009.6 0.0
15/12:00pm 20.0 15.0 4.5 36 7.5 WNW 20 30 11 16 1010.1 1010.1 0.0
15/11:30am 19.5 14.7 4.9 38 7.1 W 19 32 10 17 1010.5 1010.5 0.0
15/11:00am 18.2 13.4 4.4 40 6.6 W 19 32 10 17 1011.0 1011.0 0.0
15/10:30am 17.5 12.0 0.3 31 7.5 WNW 19 26 10 14 1011.3 1011.3 0.0
15/10:00am 17.9 12.7 0.3 30 7.7 W 17 22 9 12 1011.3 1011.3 0.0
15/09:30am 18.7 11.7 -3.7 21 9.1 NW 24 37 13 20 1011.4 1011.4 0.0
15/09:00am 18.5 13.0 -2.4 24 8.7 NNW 17 22 9 12 1011.4 1011.4 0.0
15/08:30am 18.1 12.5 -3.2 23 8.7 NNW 17 26 9 14 1011.3 1011.3 0.0
15/08:00am 17.5 10.3 -5.0 21 8.8 N 24 32 13 17 1011.0 1011.0 0.0
15/07:30am 16.8 10.5 -4.3 23 8.3 NNE 20 35 11 19 1010.7 1010.7 0.0
15/07:00am 15.4 9.2 -3.3 27 7.4 NNE 20 26 11 14 1010.6 1010.6 0.0
15/06:30am 14.8 8.5 -3.6 28 7.2 NNE 20 24 11 13 1010.6 1010.6 0.0
15/06:00am 14.4 8.4 -2.7 30 6.8 NNE 19 20 10 11 1010.7 1010.7 0.0
15/05:30am 14.9 8.9 -3.0 29 7.1 NNE 19 22 10 12 1010.8 1010.8 0.0
15/05:00am 13.5 8.6 -0.5 38 5.8 NNE 15 17 8 9 1011.1 1011.1 0.0
15/04:30am 12.9 8.4 -0.1 41 5.4 NNE 13 17 7 9 1011.2 1011.2 0.0
15/04:00am 12.6 7.8 0.4 43 5.1 NNE 15 17 8 9 1011.4 1011.4 0.0
15/03:30am 12.3 7.8 -0.1 42 5.1 NNE 13 15 7 8 1011.5 1011.5 0.0
15/03:00am 12.3 7.5 0.3 43 5.0 NNE 15 17 8 9 1011.8 1011.8 0.0
15/02:30am 13.6 8.4 0.0 39 5.7 NNE 17 19 9 10 1012.1 1012.1 0.0
15/02:00am 13.9 9.1 0.4 39 5.7 NE 15 19 8 10 1012.6 1012.6 0.0
15/01:30am 14.8 10.5 1.2 39 5.9 NE 13 15 7 8 1013.1 1013.1 0.0
15/01:00am 14.3 10.2 2.3 44 5.3 ENE 13 17 7 9 1013.6 1013.6 0.0
15/12:30am 14.0 10.3 2.2 45 5.2 E 11 13 6 7 1014.3 1014.3 0.0
15/12:00am 14.3 10.8 3.5 48 4.9 E 11 15 6 8 1014.7 1014.7 0.0
 
Date/Time
EST
Temp
°C
App
Temp
°C
Dew
Point
Rel
Hum
%
Delta-T
°C
Wind Press
QNH
hPa
Press
MSL
hPa
Rain
since 9 am
mm
Dir
 
Spd
km/h
Gust
km/h
Spd
kts
Gust
kts
14/11:30pm 14.1 11.4 3.5 49 4.8 ENE 7 11 4 6 1015.1 1015.1 0.0
14/11:00pm 14.1 11.6 4.9 54 4.3 ENE 7 7 4 4 1015.5 1015.5 0.0
14/10:30pm 14.7 11.5 4.9 52 4.6 NNE 11 11 6 6 1015.7 1015.7 0.0
14/10:00pm 16.4 13.7 3.6 42 5.9 NE 7 7 4 4 1015.8 1015.8 0.0
14/09:30pm 17.4 14.3 3.4 39 6.5 E 9 11 5 6 1015.7 1015.7 0.0
14/09:00pm 18.0 15.3 3.7 38 6.7 E 7 9 4 5 1015.8 1015.8 0.0
14/08:30pm 18.1 15.6 4.5 40 6.5 E 7 9 4 5 1016.0 1016.0 0.0
14/08:00pm 18.9 16.2 3.9 37 7.1 ESE 7 7 4 4 1015.6 1015.6 0.0
14/07:30pm 19.2 16.2 4.1 37 7.2 SE 9 9 5 5 1015.5 1015.5 0.0
14/07:00pm 19.3 17.8 4.9 38 7.0 SE 2 7 1 4 1015.6 1015.6 0.0
14/06:30pm 21.3 19.4 4.8 34 8.1 S 4 7 2 4 1015.4 1015.4 0.0
14/06:00pm 24.1 22.4 4.0 27 9.9 W 2 6 1 3 1015.4 1015.4 0.0
14/05:30pm 24.8 21.5 0.4 20 11.3 WNW 7 13 4 7 1015.4 1015.4 0.0
14/05:00pm 25.9 22.2 0.1 18 12.0 SW 9 19 5 10 1015.4 1015.4 0.0
14/04:30pm 24.9 20.9 0.7 20 11.3 W 11 22 6 12 1015.7 1015.7 0.0
14/04:00pm 25.5 20.9 -1.3 17 12.1 WSW 13 26 7 14 1016.0 1016.0 0.0
14/03:30pm 26.7 22.3 0.3 18 12.4 W 13 24 7 13 1016.0 1016.0 0.0

Other Formats:

Comma delimited format used in spreadsheet applications
http://www.bom.gov.au/fwo/IDN60801/IDN60801.94693.axf

JavaScript Object Notation format (JSON) in row-major order
http://www.bom.gov.au/fwo/IDN60801/IDN60801.94693.json